Time;durP1;ratioP1;P1;durP2;ratioP2;P2;SDS_P1;SDS_P2;PMS_P1;PMS_P2;Temp;Humidity;BMP_temperature;BMP_pressure;BME280_temperature;BME280_humidity;BME280_pressure;Samples;Min_cycle;Max_cycle;Signal;HPM_P1;HPM_P2
2022/01/22 00:00:21;;;;;;;18.80;7.47;;;;;;;2.82;100.00;103339.47;5093901;28;20019;-63
2022/01/22 00:02:48;;;;;;;15.03;6.90;;;;;;;2.83;100.00;103336.16;5112316;28;20028;-62
2022/01/22 00:05:15;;;;;;;15.10;7.67;;;;;;;2.83;100.00;103334.50;5112126;28;20016;-62
2022/01/22 00:07:40;;;;;;;15.57;7.30;;;;;;;2.84;100.00;103332.88;5112007;28;20425;-63
2022/01/22 00:10:13;;;;;;;15.87;7.10;;;;;;;2.84;100.00;103338.88;5111879;28;20027;-63
2022/01/22 00:15:10;;;;;;;12.53;7.47;;;;;;;2.85;100.00;103325.34;5111818;28;20075;-63
2022/01/22 00:17:36;;;;;;;12.00;8.38;;;;;;;2.85;100.00;103335.59;5091551;28;20044;-62
2022/01/22 00:20:03;;;;;;;12.70;7.27;;;;;;;2.86;100.00;103331.38;5091138;28;20031;-63
2022/01/22 00:22:32;;;;;;;13.30;8.30;;;;;;;2.84;100.00;103333.75;5091124;28;20479;-62
2022/01/22 00:24:59;;;;;;;14.57;8.00;;;;;;;2.84;100.00;103327.75;5091481;28;20111;-62
2022/01/22 00:27:27;;;;;;;14.27;8.20;;;;;;;2.84;100.00;103328.63;5090923;28;20224;-62
2022/01/22 00:29:52;;;;;;;15.27;9.30;;;;;;;2.84;100.00;103326.06;5090981;28;20395;-63
2022/01/22 00:32:18;;;;;;;13.33;8.60;;;;;;;2.85;100.00;103322.78;5072738;28;20209;-62
2022/01/22 00:34:44;;;;;;;11.67;8.00;;;;;;;2.85;100.00;103317.66;5091009;28;20385;-63
2022/01/22 00:37:10;;;;;;;13.50;8.77;;;;;;;2.85;100.00;103302.28;5090935;28;20110;-63
2022/01/22 00:39:35;;;;;;;13.77;7.93;;;;;;;2.86;100.00;103322.03;5090911;28;20024;-62
2022/01/22 00:42:01;;;;;;;12.53;7.50;;;;;;;2.85;100.00;103315.09;5091213;28;20044;-63
2022/01/22 00:44:27;;;;;;;14.33;8.10;;;;;;;2.86;100.00;103306.66;5090979;28;20545;-62
2022/01/22 00:46:53;;;;;;;13.90;7.97;;;;;;;2.85;100.00;103312.53;5106156;28;20028;-62
2022/01/22 00:49:18;;;;;;;12.17;7.33;;;;;;;2.85;100.00;103299.72;5110908;28;20177;-62
2022/01/22 00:51:44;;;;;;;12.83;8.17;;;;;;;2.86;100.00;103305.75;5111021;28;20147;-63
2022/01/22 00:54:09;;;;;;;15.97;7.60;;;;;;;2.86;100.00;103305.75;5111012;28;20019;-62
2022/01/22 00:56:35;;;;;;;9.77;6.50;;;;;;;2.86;100.00;103314.34;5111269;28;20078;-62
2022/01/22 00:59:00;;;;;;;12.27;6.67;;;;;;;2.87;100.00;103318.72;5110890;28;20027;-63
2022/01/22 01:01:26;;;;;;;17.80;7.33;;;;;;;2.87;100.00;103323.84;5111037;28;20081;-63
2022/01/22 01:03:52;;;;;;;14.03;7.70;;;;;;;2.88;100.00;103324.72;5110646;28;20026;-62
2022/01/22 01:06:17;;;;;;;15.13;7.47;;;;;;;2.87;100.00;103326.41;5110614;28;20019;-62
2022/01/22 01:08:43;;;;;;;12.33;7.90;;;;;;;2.86;100.00;103322.03;5092213;28;20023;-63
2022/01/22 01:11:12;;;;;;;11.83;7.43;;;;;;;2.89;100.00;103329.13;5110859;28;20019;-63
2022/01/22 01:13:42;;;;;;;13.83;7.40;;;;;;;2.88;100.00;103330.78;5110166;28;20391;-62
2022/01/22 01:17:22;;;;;;;12.50;7.90;;;;;;;2.87;100.00;103323.84;5098735;28;20063;-62
2022/01/22 01:35:25;;;;;;;14.20;9.03;;;;;;;2.90;100.00;103318.13;5090050;28;20039;-62
2022/01/22 01:37:52;;;;;;;13.03;8.93;;;;;;;2.91;100.00;103314.84;5089966;28;20024;-63
2022/01/22 01:40:20;;;;;;;12.13;10.00;;;;;;;2.91;100.00;103324.16;5089881;28;20031;-62
2022/01/22 01:43:13;;;;;;;13.63;10.07;;;;;;;2.93;100.00;103327.78;5089714;28;20020;-63
2022/01/22 01:45:32;;;;;;;12.80;9.80;;;;;;;2.92;100.00;103328.53;5097540;28;20100;-62
2022/01/22 01:48:01;;;;;;;16.10;10.80;;;;;;;2.91;100.00;103330.19;5110142;28;20102;-63
2022/01/22 01:50:27;;;;;;;15.10;10.40;;;;;;;2.92;100.00;103331.09;5110153;28;20038;-62
2022/01/22 01:53:08;;;;;;;14.57;10.30;;;;;;;2.90;100.00;103330.03;5110067;28;20024;-62
2022/01/22 01:55:47;;;;;;;13.48;9.75;;;;;;;2.91;100.00;103335.31;5110297;28;20431;-63
2022/01/22 01:58:15;;;;;;;15.03;10.53;;;;;;;2.89;100.00;103331.69;5109908;28;20029;-62
2022/01/22 02:00:40;;;;;;;14.10;11.27;;;;;;;2.90;100.00;103319.78;5109953;28;20016;-63
2022/01/22 02:03:08;;;;;;;12.63;11.43;;;;;;;2.91;100.00;103319.03;5109840;28;20384;-63
2022/01/22 02:05:35;;;;;;;16.80;11.47;;;;;;;2.92;100.00;103315.72;5109667;28;20030;-63
2022/01/22 02:08:01;;;;;;;20.67;11.87;;;;;;;2.91;100.00;103316.47;5109802;28;20070;-62
2022/01/22 02:10:30;;;;;;;15.70;11.40;;;;;;;2.92;100.00;103315.72;5109594;28;20039;-62
2022/01/22 02:23:42;;;;;;;16.47;13.13;;;;;;;2.92;100.00;103315.72;5089678;28;20538;-63
2022/01/22 02:26:09;;;;;;;18.20;14.10;;;;;;;2.91;100.00;103309.72;5093257;28;20028;-63
2022/01/22 02:28:35;;;;;;;17.80;14.97;;;;;;;2.92;100.00;103315.72;5093516;28;20036;-62
2022/01/22 02:31:12;;;;;;;19.53;15.37;;;;;;;2.90;100.00;103313.00;5093305;28;20141;-63
2022/01/22 02:33:51;;;;;;;22.40;15.17;;;;;;;2.90;100.00;103315.56;5093213;28;20028;-63
2022/01/22 02:36:30;;;;;;;21.30;14.97;;;;;;;2.92;100.00;103315.72;5093273;28;20051;-63
2022/01/22 02:39:21;;;;;;;19.70;15.97;;;;;;;2.92;100.00;103320.84;5074988;28;20032;-63
2022/01/22 02:41:46;;;;;;;19.83;16.53;;;;;;;2.93;100.00;103320.09;5092416;28;20025;-63
2022/01/22 02:44:14;;;;;;;23.23;17.70;;;;;;;2.92;100.00;103315.72;5094222;28;20024;-62
2022/01/22 02:46:42;;;;;;;19.77;17.23;;;;;;;2.92;100.00;103315.72;5095100;28;20034;-62
2022/01/22 02:49:08;;;;;;;24.67;18.97;;;;;;;2.93;100.00;103317.53;5113336;28;20027;-63
2022/01/22 02:51:33;;;;;;;26.00;18.40;;;;;;;2.94;100.00;103314.22;5094985;28;20023;-63
2022/01/22 02:54:00;;;;;;;27.07;20.07;;;;;;;2.94;100.00;103319.34;5113247;28;20070;-63
2022/01/22 02:56:25;;;;;;;26.60;20.17;;;;;;;2.94;100.00;103319.34;5113098;28;20031;-62
2022/01/22 02:58:52;;;;;;;23.87;21.00;;;;;;;2.94;100.00;103314.22;5111760;28;20031;-63
2022/01/22 03:01:20;;;;;;;28.80;21.90;;;;;;;2.96;100.00;103317.84;5113166;28;20055;-62
2022/01/22 03:03:45;;;;;;;28.40;22.77;;;;;;;2.96;100.00;103315.28;5113088;28;20024;-62
2022/01/22 03:06:11;;;;;;;23.57;20.77;;;;;;;2.95;100.00;103316.94;5112927;28;20035;-63
2022/01/22 03:08:39;;;;;;;31.27;21.87;;;;;;;2.96;100.00;103318.78;5113107;28;20023;-62
2022/01/22 03:11:16;;;;;;;27.80;21.67;;;;;;;2.97;100.00;103319.66;5113085;28;20034;-62
2022/01/22 03:29:19;;;;;;;25.80;22.10;;;;;;;2.99;100.00;103329.31;5092449;28;20545;-62
2022/01/22 03:31:45;;;;;;;29.10;22.43;;;;;;;2.98;100.00;103322.41;5092546;28;20020;-63
2022/01/22 03:34:10;;;;;;;25.97;21.80;;;;;;;2.98;100.00;103322.41;5092177;28;20026;-62
2022/01/22 03:36:36;;;;;;;28.60;23.07;;;;;;;2.97;100.00;103323.13;5091786;28;20032;-63
2022/01/22 03:39:05;;;;;;;29.33;22.00;;;;;;;2.97;100.00;103325.69;5092042;28;20027;-62
2022/01/22 03:41:31;;;;;;;26.40;23.00;;;;;;;2.98;100.00;103324.97;5092415;28;20032;-63
2022/01/22 03:43:56;;;;;;;27.70;23.43;;;;;;;2.99;100.00;103323.28;5092513;28;20098;-62
2022/01/22 03:46:22;;;;;;;28.27;23.40;;;;;;;2.99;100.00;103324.19;5092006;28;20483;-62
2022/01/22 03:48:48;;;;;;;30.33;23.23;;;;;;;3.00;100.00;103330.25;5092140;28;20030;-62
2022/01/22 03:51:14;;;;;;;31.53;25.53;;;;;;;3.00;100.00;103340.50;5091526;28;20070;-62
2022/01/22 03:53:39;;;;;;;30.40;25.03;;;;;;;3.02;100.00;103332.97;5091937;28;20476;-63
2022/01/22 03:56:07;;;;;;;31.93;26.10;;;;;;;3.00;100.00;103325.13;5091722;28;20052;-63
2022/01/22 03:58:39;;;;;;;33.60;26.33;;;;;;;3.00;100.00;103326.00;5092064;28;20047;-63
2022/01/22 04:01:49;;;;;;;40.57;26.73;;;;;;;2.99;100.00;103324.19;5091615;28;20023;-63
2022/01/22 04:04:14;;;;;;;37.87;27.50;;;;;;;3.01;100.00;103329.47;5090913;28;20067;-62
2022/01/22 04:07:10;;;;;;;37.63;28.57;;;;;;;3.01;100.00;103316.66;5092104;28;20380;-63
2022/01/22 04:09:28;;;;;;;38.53;29.20;;;;;;;3.03;100.00;103329.63;5091396;28;20031;-63
2022/01/22 04:11:55;;;;;;;30.97;27.60;;;;;;;3.02;100.00;103331.31;5091545;28;20380;-63
2022/01/22 04:14:25;;;;;;;32.77;28.23;;;;;;;3.04;100.00;103327.22;5099868;28;20025;-62
2022/01/22 04:16:58;;;;;;;39.97;29.00;;;;;;;3.03;100.00;103320.31;5111647;28;20403;-63
2022/01/22 04:25:06;;;;;;;38.97;29.40;;;;;;;3.03;100.00;103320.31;5048296;28;20029;-63
2022/01/22 04:27:32;;;;;;;39.67;32.07;;;;;;;3.04;100.00;103322.09;5048527;28;20028;-63
2022/01/22 04:29:59;;;;;;;40.87;31.87;;;;;;;3.03;100.00;103330.56;5048390;28;20040;-62
2022/01/22 04:32:26;;;;;;;41.10;32.67;;;;;;;3.04;100.00;103328.91;5048102;28;20067;-62
2022/01/22 04:34:52;;;;;;;43.90;34.00;;;;;;;3.03;100.00;103330.56;5048001;28;20167;-63
2022/01/22 04:37:19;;;;;;;38.70;33.30;;;;;;;3.02;100.00;103326.19;5048239;28;20527;-62
2022/01/22 04:39:46;;;;;;;47.17;34.93;;;;;;;3.03;100.00;103325.44;5047859;28;20308;-62
2022/01/22 04:42:12;;;;;;;41.50;34.80;;;;;;;3.05;100.00;103318.81;5047632;28;20483;-62
2022/01/22 04:44:45;;;;;;;44.50;34.93;;;;;;;3.05;100.00;103317.88;5047585;28;20025;-62
2022/01/22 04:55:01;;;;;;;43.00;35.90;;;;;;;3.06;100.00;103335.09;5047695;28;20464;-63
2022/01/22 04:57:29;;;;;;;44.03;36.60;;;;;;;3.07;100.00;103324.09;5047607;28;20333;-62
2022/01/22 04:59:54;;;;;;;51.50;36.80;;;;;;;3.07;100.00;103335.25;5054838;28;20170;-63
2022/01/22 05:02:20;;;;;;;49.93;38.57;;;;;;;3.07;100.00;103336.91;5090693;28;20341;-63
2022/01/22 05:04:45;;;;;;;48.70;38.70;;;;;;;3.07;100.00;103332.69;5090504;28;20407;-63
2022/01/22 05:07:10;;;;;;;51.27;38.27;;;;;;;3.07;100.00;103336.91;5090743;28;20027;-62
2022/01/22 05:09:36;;;;;;;49.40;38.23;;;;;;;3.06;100.00;103329.97;5090399;28;20541;-63
2022/01/22 05:12:01;;;;;;;51.40;39.47;;;;;;;3.07;100.00;103322.44;5090684;28;20511;-62
2022/01/22 05:14:27;;;;;;;47.60;38.10;;;;;;;3.07;100.00;103322.44;5090325;28;20494;-63
2022/01/22 05:16:55;;;;;;;50.20;38.80;;;;;;;3.07;100.00;103322.44;5090037;28;20051;-63
2022/01/22 05:19:34;;;;;;;54.80;39.97;;;;;;;3.07;100.00;103325.00;5089827;28;20161;-62
2022/01/22 05:22:08;;;;;;;54.00;39.37;;;;;;;3.07;100.00;103322.44;5090096;28;20054;-62
2022/01/22 05:24:38;;;;;;;52.93;38.87;;;;;;;3.08;100.00;103314.00;5090578;28;20031;-63
2022/01/22 05:32:23;;;;;;;53.07;40.97;;;;;;;3.10;100.00;103314.13;5110471;28;20024;-63
2022/01/22 05:37:33;;;;;;;54.87;39.73;;;;;;;3.11;100.00;103313.41;5110298;28;20034;-62
2022/01/22 05:39:59;;;;;;;54.23;40.33;;;;;;;3.11;100.00;103319.41;5110046;28;20027;-63
2022/01/22 05:42:24;;;;;;;48.77;38.27;;;;;;;3.12;100.00;103316.13;5102226;28;20107;-62
2022/01/22 05:44:49;;;;;;;56.17;39.70;;;;;;;3.14;100.00;103321.41;5091600;28;20020;-62
2022/01/22 05:47:21;;;;;;;50.97;39.40;;;;;;;3.14;100.00;103323.97;5110154;28;20102;-63
2022/01/22 05:49:46;;;;;;;54.07;39.33;;;;;;;3.16;100.00;103319.00;5109915;28;20077;-63
2022/01/22 05:52:14;;;;;;;53.30;40.10;;;;;;;3.15;100.00;103320.63;5109917;28;20483;-63
2022/01/22 05:59:57;;;;;;;53.17;40.00;;;;;;;3.16;100.00;103321.56;5095534;28;20080;-63
2022/01/22 06:02:23;;;;;;;54.63;40.67;;;;;;;3.17;100.00;103331.03;5089638;28;20021;-62
2022/01/22 06:04:48;;;;;;;56.40;40.23;;;;;;;3.18;100.00;103325.19;5089354;28;20032;-62
2022/01/22 06:07:14;;;;;;;63.87;39.37;;;;;;;3.17;100.00;103334.53;5089563;28;20101;-63
2022/01/22 06:09:52;;;;;;;53.00;39.77;;;;;;;3.19;100.00;103332.13;5089770;28;20051;-62
2022/01/22 06:12:29;;;;;;;46.47;36.23;;;;;;;3.19;100.00;103337.25;5089415;28;20486;-62
2022/01/22 06:14:54;;;;;;;52.03;37.57;;;;;;;3.20;100.00;103333.94;5074656;28;20104;-62
2022/01/22 06:17:20;;;;;;;57.30;40.20;;;;;;;3.20;100.00;103323.69;5109814;28;20620;-63
2022/01/22 06:19:45;;;;;;;59.00;38.93;;;;;;;3.20;100.00;103333.94;5109729;28;20491;-62
2022/01/22 06:22:10;;;;;;;51.50;38.00;;;;;;;3.21;100.00;103335.75;5109851;28;20106;-66
2022/01/22 06:24:36;;;;;;;53.30;38.03;;;;;;;3.20;100.00;103329.69;5109678;28;20380;-63
2022/01/22 06:27:01;;;;;;;50.13;37.87;;;;;;;3.20;100.00;103324.56;5109697;28;20054;-63
2022/01/22 06:29:26;;;;;;;51.10;36.77;;;;;;;3.20;100.00;103323.69;5109949;28;20472;-62
2022/01/22 06:31:52;;;;;;;49.80;37.07;;;;;;;3.23;100.00;103318.88;5087429;28;20031;-62
2022/01/22 06:34:17;;;;;;;55.33;39.43;;;;;;;3.23;100.00;103336.81;5088928;28;20035;-63
2022/01/22 06:36:42;;;;;;;49.00;36.90;;;;;;;3.24;100.00;103336.06;5089112;28;20028;-63
2022/01/22 06:39:16;;;;;;;50.60;35.93;;;;;;;3.24;100.00;103336.06;5089126;28;20408;-62
2022/01/22 06:41:45;;;;;;;50.50;37.17;;;;;;;3.24;100.00;103336.97;5089404;28;20421;-63
2022/01/22 06:44:19;;;;;;;49.77;35.17;;;;;;;3.25;100.00;103343.00;5089534;28;20027;-63
2022/01/22 06:46:47;;;;;;;53.20;36.13;;;;;;;3.26;100.00;103349.94;5105833;28;20024;-62
2022/01/22 06:49:12;;;;;;;46.63;34.37;;;;;;;3.26;100.00;103349.94;5109470;28;20024;-63
2022/01/22 06:51:38;;;;;;;52.23;35.50;;;;;;;3.27;100.00;103348.28;5109385;28;20034;-64
2022/01/22 06:54:05;;;;;;;53.87;35.20;;;;;;;3.28;100.00;103348.44;5109755;28;20088;-63
2022/01/22 06:56:31;;;;;;;50.43;34.87;;;;;;;3.29;100.00;103354.47;5094631;28;20020;-62
2022/01/22 06:58:58;;;;;;;47.73;35.20;;;;;;;3.30;100.00;103352.06;5089015;28;20070;-63
2022/01/22 07:01:25;;;;;;;46.50;35.23;;;;;;;3.30;100.00;103354.63;5089174;28;20020;-62
2022/01/22 07:03:50;;;;;;;52.87;36.93;;;;;;;3.31;100.00;103355.56;5089143;28;20020;-62
2022/01/22 07:06:16;;;;;;;51.13;34.97;;;;;;;3.31;100.00;103353.88;5088936;28;20523;-62
2022/01/22 07:08:41;;;;;;;49.00;33.57;;;;;;;3.32;100.00;103352.22;5083754;28;20024;-62
2022/01/22 07:11:07;;;;;;;46.70;33.97;;;;;;;3.32;100.00;103355.72;5111366;28;20047;-62
2022/01/22 07:13:33;;;;;;;46.53;32.93;;;;;;;3.32;100.00;103348.00;5113198;28;20027;-62
2022/01/22 07:15:58;;;;;;;44.30;31.77;;;;;;;3.33;100.00;103361.72;5112962;28;20031;-62
2022/01/22 07:18:24;;;;;;;42.47;31.93;;;;;;;3.33;100.00;103372.88;5113148;28;20059;-62
2022/01/22 07:20:51;;;;;;;47.70;32.33;;;;;;;3.35;100.00;103381.66;5100105;28;20027;-62
2022/01/22 07:23:30;;;;;;;48.37;34.80;;;;;;;3.35;100.00;103384.22;5092422;28;20023;-63
2022/01/22 07:25:56;;;;;;;46.17;31.23;;;;;;;3.35;100.00;103389.34;5092512;28;20111;-63
2022/01/22 07:28:21;;;;;;;47.70;34.07;;;;;;;3.37;100.00;103384.38;5073840;28;20134;-63
2022/01/22 07:30:48;;;;;;;46.80;31.20;;;;;;;3.39;100.00;103381.94;5090136;28;20032;-63
2022/01/22 07:33:14;;;;;;;44.30;32.57;;;;;;;3.39;100.00;103385.44;5089554;28;20024;-64
2022/01/22 07:35:39;;;;;;;45.07;31.73;;;;;;;3.39;100.00;103390.56;5090521;28;20127;-63
2022/01/22 07:38:04;;;;;;;47.37;32.70;;;;;;;3.40;100.00;103396.59;5089718;28;20027;-63
2022/01/22 07:40:30;;;;;;;45.50;31.30;;;;;;;3.42;100.00;103397.66;5089974;28;20048;-63
2022/01/22 07:42:56;;;;;;;48.73;32.87;;;;;;;3.43;100.00;103394.34;5089321;28;20032;-63
2022/01/22 07:45:22;;;;;;;50.63;33.67;;;;;;;3.41;100.00;103396.75;5070330;28;20055;-63
2022/01/22 07:47:47;;;;;;;49.83;33.83;;;;;;;3.41;100.00;103400.97;5088997;28;20048;-62
2022/01/22 07:50:12;;;;;;;48.93;33.03;;;;;;;3.43;100.00;103402.03;5090769;28;20030;-62
2022/01/22 07:52:38;;;;;;;51.33;33.97;;;;;;;3.44;100.00;103403.84;5088949;28;20109;-62
2022/01/22 07:55:06;;;;;;;45.67;33.50;;;;;;;3.45;100.00;103398.84;5091706;28;20035;-63
2022/01/22 07:57:32;;;;;;;48.07;33.33;;;;;;;3.46;100.00;103394.66;5091658;28;20027;-63
2022/01/22 07:59:57;;;;;;;49.47;33.27;;;;;;;3.47;100.00;103392.25;5091915;28;20024;-63
2022/01/22 08:02:22;;;;;;;50.63;32.53;;;;;;;3.47;100.00;103386.22;5091614;28;20012;-63
2022/01/22 08:04:48;;;;;;;47.07;32.77;;;;;;;3.48;100.00;103388.94;5095872;28;20019;-62
2022/01/22 08:07:13;;;;;;;42.93;31.27;;;;;;;3.51;100.00;103385.75;5111721;28;20023;-63
2022/01/22 08:09:38;;;;;;;39.23;30.13;;;;;;;3.51;100.00;103392.56;5111904;28;20019;-63
2022/01/22 08:12:04;;;;;;;45.97;32.83;;;;;;;3.51;100.00;103390.91;5111964;28;20039;-63
2022/01/22 08:14:30;;;;;;;48.00;33.40;;;;;;;3.53;100.00;103393.59;5111869;28;20034;-63
2022/01/22 08:16:55;;;;;;;45.20;30.97;;;;;;;3.54;100.00;103386.09;5111536;28;20452;-63
2022/01/22 08:19:23;;;;;;;47.10;31.03;;;;;;;3.55;100.00;103394.69;5110646;28;20450;-62
2022/01/22 08:21:48;;;;;;;43.40;30.30;;;;;;;3.57;100.00;103388.06;5090753;28;20119;-63
2022/01/22 08:24:15;;;;;;;40.70;29.30;;;;;;;3.58;100.00;103390.78;5090998;28;20614;-63
2022/01/22 08:26:46;;;;;;;40.47;28.70;;;;;;;3.60;100.00;103393.47;5072791;28;20031;-63
2022/01/22 08:29:12;;;;;;;43.50;30.57;;;;;;;3.63;100.00;103392.91;5091160;28;20383;-63
2022/01/22 08:31:47;;;;;;;43.13;28.47;;;;;;;3.63;100.00;103395.47;5091019;28;20020;-62
2022/01/22 08:36:56;;;;;;;43.10;29.13;;;;;;;3.66;100.00;103383.88;5096130;28;20042;-62
2022/01/22 08:39:22;;;;;;;44.93;29.83;;;;;;;3.69;100.00;103388.38;5111355;28;20449;-62
2022/01/22 08:41:47;;;;;;;43.60;29.10;;;;;;;3.71;100.00;103381.75;5111205;28;20088;-62
2022/01/22 08:44:13;;;;;;;40.53;29.33;;;;;;;3.72;100.00;103389.59;5111237;28;20027;-63
2022/01/22 08:46:39;;;;;;;41.53;27.23;;;;;;;3.73;100.00;103390.53;5111156;28;20476;-63
2022/01/22 08:49:06;;;;;;;37.20;26.53;;;;;;;3.75;100.00;103394.16;5111133;28;20034;-63
2022/01/22 08:51:33;;;;;;;45.33;26.40;;;;;;;3.78;100.00;103399.59;5092073;28;20028;-63
2022/01/22 08:54:00;;;;;;;45.10;27.03;;;;;;;3.79;100.00;103392.81;5090620;28;20028;-64
2022/01/22 08:56:26;;;;;;;39.70;27.37;;;;;;;3.81;100.00;103399.88;5090822;28;20274;-63
2022/01/22 08:58:52;;;;;;;40.97;27.10;;;;;;;3.82;100.00;103404.28;5090803;28;20024;-63
2022/01/22 09:01:17;;;;;;;41.10;24.80;;;;;;;3.84;100.00;103400.22;5099346;28;20289;-63
2022/01/22 09:03:43;;;;;;;38.73;26.63;;;;;;;3.88;100.00;103410.78;5110872;28;20472;-63
2022/01/22 09:06:08;;;;;;;37.10;25.07;;;;;;;3.90;100.00;103419.53;5110353;28;20467;-64
2022/01/22 09:08:34;;;;;;;34.70;23.63;;;;;;;3.90;100.00;103422.09;5110866;28;20520;-64
2022/01/22 09:11:00;;;;;;;35.17;25.17;;;;;;;3.92;100.00;103423.19;5104914;28;20387;-64
2022/01/22 09:13:26;;;;;;;33.63;23.63;;;;;;;3.92;100.00;103424.06;5090182;28;20058;-64
2022/01/22 09:15:55;;;;;;;31.20;23.53;;;;;;;3.93;100.00;103433.59;5090200;28;20035;-63
2022/01/22 09:18:21;;;;;;;37.53;23.13;;;;;;;3.96;100.00;103435.53;5090077;28;20058;-63
2022/01/22 09:21:02;;;;;;;38.90;24.17;;;;;;;3.97;100.00;103435.69;5090197;28;20028;-64
2022/01/22 09:23:29;;;;;;;33.00;25.17;;;;;;;3.99;100.00;103437.53;5089999;28;20024;-64
2022/01/22 09:25:55;;;;;;;31.40;22.67;;;;;;;4.02;100.00;103437.81;5095187;28;20015;-63
2022/01/22 09:28:21;;;;;;;31.60;22.60;;;;;;;4.03;100.00;103429.41;5110434;28;20036;-63
2022/01/22 09:30:47;;;;;;;28.13;20.77;;;;;;;4.05;100.00;103421.06;5110337;28;20437;-64
2022/01/22 09:33:13;;;;;;;30.23;22.57;;;;;;;4.07;100.00;103426.34;5109839;28;20471;-63
2022/01/22 09:35:39;;;;;;;29.80;22.07;;;;;;;4.08;100.00;103431.63;5091555;28;20027;-63
2022/01/22 09:38:04;;;;;;;26.67;19.70;;;;;;;4.10;100.00;103439.53;5110393;28;20032;-64
2022/01/22 09:40:30;;;;;;;28.37;21.47;;;;;;;4.13;100.00;103439.81;5108992;28;20460;-64
2022/01/22 09:42:58;;;;;;;28.10;20.47;;;;;;;4.15;100.00;103442.53;5089960;28;20032;-63
2022/01/22 09:45:23;;;;;;;32.10;21.13;;;;;;;4.16;100.00;103452.03;5089903;28;20361;-63
2022/01/22 09:47:50;;;;;;;29.10;21.03;;;;;;;4.19;100.00;103452.38;5089954;28;20066;-63
2022/01/22 09:50:20;;;;;;;26.93;20.27;;;;;;;4.21;100.00;103450.84;5089622;28;20055;-63
2022/01/22 09:52:46;;;;;;;29.60;23.23;;;;;;;4.23;100.00;103451.91;5089878;28;20024;-63
2022/01/22 09:55:12;;;;;;;27.47;21.00;;;;;;;4.25;100.00;103452.97;5089775;28;20305;-61
2022/01/22 09:57:38;;;;;;;26.47;21.13;;;;;;;4.26;100.00;103452.22;5089563;28;20031;-63
2022/01/22 10:00:10;;;;;;;31.20;22.77;;;;;;;4.28;100.00;103455.84;5109601;28;20251;-62
2022/01/22 10:02:56;;;;;;;28.63;22.20;;;;;;;4.30;100.00;103464.59;5110073;28;20019;-61
2022/01/22 10:05:26;;;;;;;29.50;22.93;;;;;;;4.30;100.00;103462.03;5084986;28;20496;-62
2022/01/22 10:07:53;;;;;;;26.33;21.20;;;;;;;4.33;100.00;103464.91;5089709;28;20145;-63
2022/01/22 10:10:18;;;;;;;26.73;21.07;;;;;;;4.36;100.00;103463.41;5089617;28;20031;-62
2022/01/22 10:12:45;;;;;;;29.17;22.37;;;;;;;4.38;100.00;103464.47;5089379;28;20051;-61
2022/01/22 10:15:13;;;;;;;26.63;22.43;;;;;;;4.40;100.00;103465.53;5097752;28;20073;-63
2022/01/22 10:17:51;;;;;;;31.20;23.33;;;;;;;4.41;100.00;103465.69;5109665;28;20063;-62
2022/01/22 10:20:27;;;;;;;26.93;22.90;;;;;;;4.42;100.00;103457.22;5109436;28;20097;-62
2022/01/22 10:22:55;;;;;;;28.30;22.27;;;;;;;4.47;100.00;103457.69;5109566;28;20450;-62
2022/01/22 10:25:40;;;;;;;29.77;22.47;;;;;;;4.48;100.00;103462.03;5109763;28;20023;-62
2022/01/22 10:28:19;;;;;;;29.45;22.60;;;;;;;4.48;100.00;103451.78;5110099;28;20525;-62
2022/01/22 10:30:45;;;;;;;27.83;22.27;;;;;;;4.50;100.00;103457.97;5109645;28;20027;-61
2022/01/22 10:35:47;;;;;;;29.90;23.23;;;;;;;4.50;100.00;103463.13;5090221;28;20032;-62
2022/01/22 10:38:12;;;;;;;28.63;21.87;;;;;;;4.52;100.00;103461.59;5089512;28;20067;-62
2022/01/22 10:40:40;;;;;;;29.20;22.67;;;;;;;4.52;100.00;103456.47;5089498;28;20500;-62
2022/01/22 10:43:13;;;;;;;32.17;20.92;;;;;;;4.54;100.00;103459.19;5089396;28;20099;-62
2022/01/22 10:45:42;;;;;;;26.80;20.20;;;;;;;4.54;100.00;103452.41;5090607;28;20126;-63
2022/01/22 10:48:21;;;;;;;25.60;21.80;;;;;;;4.54;100.00;103454.06;5093615;28;20078;-62
2022/01/22 10:51:00;;;;;;;31.43;21.50;;;;;;;4.55;100.00;103461.91;5092903;28;20020;-62
2022/01/22 10:53:51;;;;;;;26.90;21.13;;;;;;;4.55;100.00;103467.03;5092929;28;20045;-62
2022/01/22 10:56:22;;;;;;;27.02;21.85;;;;;;;4.57;100.00;103473.25;5021431;28;20037;-62
2022/01/22 10:58:59;;;;;;;24.23;20.58;;;;;;;4.57;100.00;103470.66;5030157;28;20037;-62
2022/01/22 11:01:28;;;;;;;31.93;21.47;;;;;;;4.59;100.00;103472.50;5013021;28;20477;-63
2022/01/22 11:04:11;;;;;;;28.67;21.23;;;;;;;4.59;100.00;103473.38;5029727;28;20029;-62
2022/01/22 11:06:45;;;;;;;22.73;20.17;;;;;;;4.60;100.00;103469.16;5029552;28;20089;-62
2022/01/22 11:09:10;;;;;;;27.47;21.37;;;;;;;4.62;100.00;103467.66;5029644;28;20045;-63
2022/01/22 11:11:40;;;;;;;25.50;21.77;;;;;;;4.60;100.00;103464.94;5029817;28;20052;-62
2022/01/22 11:14:08;;;;;;;27.23;21.30;;;;;;;4.61;100.00;103461.59;5029402;28;20112;-63
2022/01/22 11:16:38;;;;;;;25.70;22.13;;;;;;;4.62;100.00;103462.53;5029638;28;20030;-62
2022/01/22 11:19:04;;;;;;;28.75;22.17;;;;;;;4.63;100.00;103452.41;5029363;28;20211;-62
2022/01/22 11:21:31;;;;;;;30.77;23.23;;;;;;;4.63;100.00;103444.69;5029266;28;20041;-62
2022/01/22 11:23:57;;;;;;;29.13;23.73;;;;;;;4.62;100.00;103432.63;5029114;28;20041;-62
2022/01/22 11:26:23;;;;;;;31.23;24.37;;;;;;;4.64;100.00;103433.66;5028745;28;20094;-62
2022/01/22 11:28:53;;;;;;;36.73;24.03;;;;;;;4.67;100.00;103430.47;5029337;28;20689;-62
2022/01/22 11:31:21;;;;;;;27.43;23.00;;;;;;;4.68;100.00;103437.41;5029470;28;20029;-62
2022/01/22 11:33:49;;;;;;;29.33;24.07;;;;;;;4.68;100.00;103437.41;5074391;28;20067;-63
2022/01/22 11:36:26;;;;;;;29.58;23.42;;;;;;;4.70;100.00;103443.63;5091894;28;20020;-61
2022/01/22 11:39:02;;;;;;;27.17;24.20;;;;;;;4.69;100.00;103435.00;5092423;28;20032;-62
2022/01/22 11:41:28;;;;;;;33.53;25.63;;;;;;;4.73;100.00;103440.47;5092004;28;20024;-62
2022/01/22 11:44:08;;;;;;;33.90;27.80;;;;;;;4.72;100.00;103438.63;5092320;28;20024;-62
2022/01/22 11:46:51;;;;;;;29.97;26.30;;;;;;;4.74;100.00;103443.19;5092132;28;20031;-62
2022/01/22 11:49:26;;;;;;;36.37;26.70;;;;;;;4.76;100.00;103426.25;5092166;28;20024;-62
2022/01/22 11:52:10;;;;;;;32.27;26.60;;;;;;;4.78;100.00;103434.09;5094036;28;20047;-62
2022/01/22 11:54:54;;;;;;;29.13;25.45;;;;;;;4.77;100.00;103437.41;5112375;28;20035;-63
2022/01/22 11:57:21;;;;;;;33.83;27.27;;;;;;;4.77;100.00;103435.75;5112190;28;20046;-62
2022/01/22 11:59:47;;;;;;;36.63;27.30;;;;;;;4.77;100.00;103435.75;5112030;28;20368;-62
2022/01/22 12:02:14;;;;;;;33.67;28.37;;;;;;;4.79;100.00;103446.19;5112173;28;20039;-62
2022/01/22 12:04:39;;;;;;;34.37;27.87;;;;;;;4.78;100.00;103444.38;5112562;28;20201;-63
2022/01/22 12:07:04;;;;;;;34.37;29.03;;;;;;;4.77;100.00;103442.56;5112010;28;20080;-62
2022/01/22 12:09:32;;;;;;;37.47;28.73;;;;;;;4.78;100.00;103435.03;5111857;28;20020;-63
2022/01/22 12:14:49;;;;;;;35.60;28.57;;;;;;;4.79;100.00;103433.34;5112207;28;20051;-62
2022/01/22 12:17:35;;;;;;;34.03;29.38;;;;;;;4.79;100.00;103435.91;5111520;28;20059;-61
2022/01/22 12:22:52;;;;;;;36.90;30.00;;;;;;;4.79;100.00;103435.91;5095684;28;20431;-62
2022/01/22 12:25:23;;;;;;;38.47;30.27;;;;;;;4.82;100.00;103440.44;5107291;28;20044;-63
2022/01/22 12:27:51;;;;;;;35.67;29.10;;;;;;;4.82;100.00;103432.75;5111893;28;20020;-63
2022/01/22 12:30:38;;;;;;;34.20;29.07;;;;;;;4.82;100.00;103436.22;5111690;28;20082;-63
2022/01/22 12:33:07;;;;;;;31.37;26.70;;;;;;;4.82;100.00;103438.81;5111757;28;20058;-63
2022/01/22 12:35:41;;;;;;;33.80;28.20;;;;;;;4.82;100.00;103430.19;5111342;28;20027;-62
2022/01/22 12:38:48;;;;;;;36.53;29.67;;;;;;;4.82;100.00;103435.31;5111498;28;20099;-62